createdAt,value
2018-03-20T00:02:22.702Z,82.10
2018-03-20T00:04:50.331Z,81.98
2018-03-20T00:07:18.203Z,81.62
2018-03-20T00:09:45.788Z,81.31
2018-03-20T00:12:13.348Z,81.43
2018-03-20T00:14:42.200Z,80.88
2018-03-20T00:17:09.836Z,81.03
2018-03-20T00:19:37.396Z,81.16
2018-03-20T00:22:05.116Z,81.20
2018-03-20T00:24:32.769Z,81.41
2018-03-20T00:27:00.337Z,81.26
2018-03-20T00:29:27.961Z,81.47
2018-03-20T00:31:55.598Z,81.40
2018-03-20T00:34:23.181Z,81.16
2018-03-20T00:36:50.982Z,81.27
2018-03-20T00:39:18.562Z,81.50
2018-03-20T00:41:46.141Z,81.23
2018-03-20T00:44:13.984Z,81.51
2018-03-20T00:46:41.556Z,81.40
2018-03-20T00:49:09.135Z,81.18
2018-03-20T00:51:38.083Z,81.25
2018-03-20T00:54:05.681Z,80.94
2018-03-20T00:56:33.279Z,80.94
2018-03-20T00:59:00.919Z,80.96
2018-03-20T01:01:28.507Z,81.10
2018-03-20T01:03:56.082Z,81.00
2018-03-20T01:06:23.721Z,81.21
2018-03-20T01:08:51.285Z,81.35
2018-03-20T01:11:19.003Z,81.44
2018-03-20T01:13:46.623Z,81.43
2018-03-20T01:16:14.204Z,81.21
2018-03-20T01:18:41.774Z,81.45
2018-03-20T01:21:09.606Z,81.66
2018-03-20T01:23:37.293Z,81.48
2018-03-20T01:26:04.866Z,81.78
2018-03-20T01:28:32.711Z,81.98
2018-03-20T01:31:00.280Z,81.74
2018-03-20T01:33:27.868Z,81.95
2018-03-20T01:35:55.579Z,82.18
2018-03-20T01:38:23.214Z,82.52
2018-03-20T01:40:50.788Z,82.62
2018-03-20T01:43:18.469Z,82.57
2018-03-20T01:45:46.044Z,82.87
2018-03-20T01:48:13.829Z,82.77
2018-03-20T01:50:41.457Z,82.72
2018-03-20T01:53:19.003Z,82.67
2018-03-20T01:55:46.637Z,82.69
2018-03-20T01:58:14.205Z,82.70
2018-03-20T02:00:41.781Z,82.45
2018-03-20T02:03:09.629Z,82.88
2018-03-20T02:05:37.186Z,82.67
2018-03-20T02:08:04.793Z,82.83
2018-03-20T02:10:32.414Z,82.13
2018-03-20T02:13:00.285Z,82.38
2018-03-20T02:15:27.858Z,81.97
2018-03-20T02:17:55.494Z,81.46
2018-03-20T02:20:23.117Z,81.60
2018-03-20T02:22:50.688Z,80.68
2018-03-20T02:25:18.674Z,79.17
2018-03-20T02:27:46.249Z,79.63
2018-03-20T02:30:13.844Z,79.91
2018-03-20T02:32:41.514Z,80.09
2018-03-20T02:35:09.111Z,80.24
2018-03-20T02:37:36.681Z,80.08
2018-03-20T02:40:04.535Z,80.27
2018-03-20T02:42:32.112Z,80.45
2018-03-20T02:44:59.744Z,80.54
2018-03-20T02:47:27.385Z,80.88
2018-03-20T02:49:55.021Z,80.37
2018-03-20T02:52:23.381Z,80.78
2018-03-20T02:54:51.029Z,80.66
2018-03-20T02:57:18.617Z,80.43
2018-03-20T02:59:46.198Z,80.35
2018-03-20T03:02:14.118Z,80.71
2018-03-20T03:04:41.679Z,80.57
2018-03-20T03:07:09.244Z,80.33
2018-03-20T03:09:36.876Z,80.21
2018-03-20T03:12:04.497Z,79.90
2018-03-20T03:14:32.064Z,80.27
2018-03-20T03:16:59.868Z,79.62
2018-03-20T03:19:27.449Z,79.09
2018-03-20T03:21:55.025Z,79.45
2018-03-20T03:24:22.886Z,79.34
2018-03-20T03:26:50.600Z,79.07
2018-03-20T03:29:18.159Z,79.45
2018-03-20T03:31:45.787Z,79.27
2018-03-20T03:34:13.357Z,79.36
2018-03-20T03:36:40.924Z,78.97
2018-03-20T03:39:08.861Z,78.17
2018-03-20T03:41:36.430Z,79.02
2018-03-20T03:44:04.000Z,77.84
2018-03-20T03:46:31.614Z,77.15
2018-03-20T03:48:59.181Z,77.53
2018-03-20T03:51:26.781Z,76.83
2018-03-20T03:53:54.405Z,76.21
2018-03-20T03:56:22.021Z,77.47
2018-03-20T03:58:49.577Z,76.27
2018-03-20T04:01:17.271Z,76.08
2018-03-20T04:03:44.899Z,77.50
2018-03-20T04:06:12.477Z,77.15
2018-03-20T04:08:40.083Z,78.19
2018-03-20T04:11:07.685Z,79.55
2018-03-20T04:13:35.260Z,79.48
2018-03-20T04:16:02.893Z,80.52
2018-03-20T04:18:30.517Z,80.31
2018-03-20T04:20:58.768Z,81.38
2018-03-20T04:23:26.445Z,80.63
2018-03-20T04:25:54.051Z,81.62
2018-03-20T04:28:22.671Z,80.26
2018-03-20T04:30:50.511Z,80.37
2018-03-20T04:33:18.125Z,80.52
2018-03-20T04:35:45.680Z,80.27
2018-03-20T04:38:13.300Z,80.49
2018-03-20T04:40:42.934Z,80.12
2018-03-20T04:43:10.484Z,80.00
2018-03-20T04:45:38.120Z,80.03
2018-03-20T04:48:05.677Z,80.16
2018-03-20T04:50:33.301Z,81.15
2018-03-20T04:53:00.950Z,81.15
2018-03-20T04:55:28.516Z,80.76
2018-03-20T04:57:56.093Z,80.53
2018-03-20T05:00:23.704Z,80.89
2018-03-20T05:02:51.327Z,79.69
2018-03-20T05:05:18.910Z,80.02
2018-03-20T05:07:46.767Z,80.35
2018-03-20T05:10:14.337Z,80.90
2018-03-20T05:12:41.912Z,81.54
2018-03-20T05:15:09.652Z,81.51
2018-03-20T05:17:50.077Z,81.44
2018-03-20T05:20:18.585Z,81.62
2018-03-20T05:23:04.892Z,81.70
2018-03-20T05:25:32.536Z,82.10
2018-03-20T05:28:00.198Z,81.93
2018-03-20T05:30:27.927Z,81.93
2018-03-20T05:32:55.814Z,82.14
2018-03-20T05:35:23.488Z,81.97
2018-03-20T05:37:51.135Z,82.02
2018-03-20T05:40:19.904Z,81.05
2018-03-20T05:42:47.541Z,82.24
2018-03-20T05:45:15.182Z,82.89
2018-03-20T05:47:48.386Z,83.51
2018-03-20T05:50:20.563Z,84.08
2018-03-20T05:52:48.246Z,84.44
2018-03-20T05:55:15.813Z,84.91
2018-03-20T05:57:43.382Z,84.75
2018-03-20T06:00:11.000Z,85.30
2018-03-20T06:02:38.585Z,85.30
2018-03-20T06:05:06.157Z,84.86
2018-03-20T06:07:33.805Z,84.91
2018-03-20T06:10:01.366Z,85.12
2018-03-20T06:12:28.953Z,85.40
2018-03-20T06:14:56.573Z,84.93
2018-03-20T06:17:24.270Z,85.05
2018-03-20T06:19:51.873Z,85.26
2018-03-20T06:22:19.514Z,84.91
2018-03-20T06:24:47.090Z,83.90
2018-03-20T06:27:14.664Z,84.62
2018-03-20T06:29:42.296Z,85.62
2018-03-20T06:32:09.987Z,86.09
2018-03-20T06:34:37.759Z,86.01
2018-03-20T06:37:05.393Z,85.54
2018-03-20T06:39:32.976Z,84.90
2018-03-20T06:42:00.559Z,84.09
2018-03-20T06:44:28.497Z,82.90
2018-03-20T06:46:56.140Z,85.10
2018-03-20T06:49:23.770Z,86.13
2018-03-20T06:51:51.402Z,85.96
2018-03-20T06:54:18.973Z,85.83
2018-03-20T06:56:46.529Z,85.30
2018-03-20T06:59:14.174Z,85.68
2018-03-20T07:01:41.774Z,84.89
2018-03-20T07:04:09.401Z,84.05
2018-03-20T07:06:37.024Z,84.46
2018-03-20T07:09:04.685Z,85.68
2018-03-20T07:11:32.922Z,84.80
2018-03-20T07:14:00.534Z,84.91
2018-03-20T07:16:28.091Z,84.60
2018-03-20T07:18:55.722Z,84.92
2018-03-20T07:21:23.347Z,84.18
2018-03-20T07:23:50.943Z,86.21
2018-03-20T07:26:18.534Z,86.25
2018-03-20T07:28:46.433Z,86.00
2018-03-20T07:31:14.015Z,85.55
2018-03-20T07:33:41.865Z,85.17
2018-03-20T07:36:09.488Z,84.07
2018-03-20T07:38:37.078Z,84.26
2018-03-20T07:41:04.681Z,83.58
2018-03-20T07:43:32.305Z,84.79
2018-03-20T07:45:59.972Z,84.38
2018-03-20T07:48:27.668Z,83.80
2018-03-20T07:50:55.295Z,83.94
2018-03-20T07:53:22.890Z,83.55
2018-03-20T07:55:50.474Z,82.82
2018-03-20T07:58:18.398Z,82.03
2018-03-20T08:00:45.981Z,81.10
2018-03-20T08:03:13.557Z,82.51
2018-03-20T08:05:41.480Z,83.16
2018-03-20T08:08:09.112Z,82.48
2018-03-20T08:10:36.758Z,81.77
2018-03-20T08:13:04.480Z,80.78
2018-03-20T08:15:32.052Z,80.74
2018-03-20T08:17:59.631Z,80.76
2018-03-20T08:20:27.283Z,80.51
2018-03-20T08:22:54.872Z,79.86
2018-03-20T08:25:22.455Z,80.60
2018-03-20T08:27:50.095Z,79.93
2018-03-20T08:30:17.684Z,77.86
2018-03-20T08:32:45.354Z,79.29
2018-03-20T08:35:13.334Z,79.57
2018-03-20T08:37:40.908Z,78.20
2018-03-20T08:40:08.526Z,79.10
2018-03-20T08:42:36.422Z,78.25
2018-03-20T08:45:04.036Z,77.44
2018-03-20T08:47:31.615Z,76.82
2018-03-20T08:49:59.268Z,77.62
2018-03-20T08:52:26.875Z,77.13
2018-03-20T08:54:54.456Z,76.63
2018-03-20T08:57:22.129Z,77.20
2018-03-20T08:59:49.771Z,78.22
2018-03-20T09:02:17.845Z,73.37
2018-03-20T09:04:45.539Z,77.92
2018-03-20T09:07:13.113Z,75.16
2018-03-20T09:09:40.703Z,73.24
2018-03-20T09:12:08.335Z,74.04
2018-03-20T09:14:35.927Z,71.72
2018-03-20T09:17:03.517Z,72.88
2018-03-20T09:19:31.262Z,74.54
2018-03-20T09:21:58.830Z,72.34
2018-03-20T09:24:26.406Z,75.19
2018-03-20T09:26:54.033Z,74.42
2018-03-20T09:29:21.595Z,73.86
2018-03-20T09:31:49.168Z,76.36
2018-03-20T09:34:16.870Z,78.56
2018-03-20T09:36:44.792Z,76.21
2018-03-20T09:39:12.444Z,77.05
2018-03-20T09:41:40.323Z,78.45
2018-03-20T09:44:07.888Z,76.25
2018-03-20T09:46:35.455Z,74.92
2018-03-20T09:49:03.210Z,73.66
2018-03-20T09:51:30.750Z,70.98
2018-03-20T09:53:58.359Z,69.73
2018-03-20T09:56:26.204Z,66.74
2018-03-20T09:58:53.788Z,65.29
2018-03-20T10:01:21.371Z,68.58
2018-03-20T10:03:49.005Z,68.65
2018-03-20T10:06:16.609Z,71.47
2018-03-20T10:08:44.203Z,71.33
2018-03-20T10:11:11.832Z,69.01
2018-03-20T10:13:39.399Z,68.78
2018-03-20T10:16:06.972Z,68.32
2018-03-20T10:18:34.619Z,67.91
2018-03-20T10:21:02.200Z,67.83
2018-03-20T10:23:29.799Z,65.21
2018-03-20T10:25:57.686Z,68.11
2018-03-20T10:28:25.247Z,64.80
2018-03-20T10:30:52.822Z,67.45
2018-03-20T10:33:20.484Z,68.78
2018-03-20T10:35:48.122Z,69.15
2018-03-20T10:38:15.762Z,66.12
2018-03-20T10:40:43.404Z,68.47
2018-03-20T10:43:10.974Z,67.94
2018-03-20T10:45:38.544Z,66.44
2018-03-20T10:48:06.183Z,63.69
2018-03-20T10:50:33.766Z,64.91
2018-03-20T10:53:01.426Z,66.30
2018-03-20T10:55:29.137Z,64.72
2018-03-20T10:57:56.709Z,62.50
2018-03-20T11:00:34.228Z,64.96
2018-03-20T11:03:07.418Z,66.02
2018-03-20T11:05:35.037Z,65.81
2018-03-20T11:08:02.618Z,66.18
2018-03-20T11:10:30.245Z,66.92
2018-03-20T11:12:57.894Z,65.89
2018-03-20T11:15:25.535Z,63.69
2018-03-20T11:17:53.163Z,62.74
2018-03-20T11:20:20.780Z,63.60
2018-03-20T11:22:48.367Z,63.02
2018-03-20T11:25:15.945Z,64.31
2018-03-20T11:27:43.823Z,64.86
2018-03-20T11:30:11.467Z,63.82
2018-03-20T11:32:39.028Z,63.68
2018-03-20T11:35:06.980Z,65.29
2018-03-20T11:37:35.430Z,67.57
2018-03-20T11:40:03.115Z,62.59
2018-03-20T11:42:30.736Z,63.99
2018-03-20T11:44:58.300Z,62.95
2018-03-20T11:47:25.873Z,61.28
2018-03-20T11:49:53.521Z,65.14
2018-03-20T11:52:21.088Z,58.42
2018-03-20T11:54:48.653Z,62.42
2018-03-20T11:57:16.290Z,61.30
2018-03-20T11:59:43.856Z,60.86
2018-03-20T12:02:11.478Z,56.35
2018-03-20T12:04:39.389Z,55.85
2018-03-20T12:07:06.966Z,53.89
2018-03-20T12:09:50.564Z,53.21
2018-03-20T12:12:18.146Z,52.10
2018-03-20T12:14:45.730Z,53.85
2018-03-20T12:17:13.351Z,54.45
2018-03-20T12:19:40.929Z,53.90
2018-03-20T12:22:09.172Z,50.24
2018-03-20T12:24:36.805Z,52.90
2018-03-20T12:27:04.385Z,49.43
2018-03-20T12:29:31.954Z,44.78
2018-03-20T12:32:00.054Z,45.64
2018-03-20T12:37:15.755Z,44.40
2018-03-20T12:39:43.426Z,45.76
2018-03-20T12:42:11.167Z,42.74
2018-03-20T12:44:38.814Z,44.12
2018-03-20T12:47:06.387Z,40.78
2018-03-20T12:49:33.990Z,41.20
2018-03-20T12:52:01.968Z,41.08
2018-03-20T12:54:29.579Z,41.33
2018-03-20T12:56:57.180Z,44.19
2018-03-20T12:59:24.802Z,45.04
2018-03-20T13:01:52.392Z,44.84
2018-03-20T13:04:19.972Z,46.11
2018-03-20T13:06:47.662Z,46.19
2018-03-20T13:09:15.247Z,50.45
2018-03-20T13:11:42.832Z,49.79
2018-03-20T13:14:10.477Z,50.39
2018-03-20T13:16:38.118Z,53.88
2018-03-20T13:19:06.298Z,53.95
2018-03-20T13:21:33.963Z,57.14
2018-03-20T13:24:01.602Z,58.70
2018-03-20T13:26:29.163Z,61.41
2018-03-20T13:28:57.102Z,59.56
2018-03-20T13:31:24.678Z,58.85
2018-03-20T13:33:52.266Z,60.17
2018-03-20T13:36:19.905Z,60.04
2018-03-20T13:38:47.551Z,61.84
2018-03-20T13:41:15.530Z,61.56
2018-03-20T13:43:43.315Z,62.89
2018-03-20T13:46:10.888Z,61.46
2018-03-20T13:48:38.466Z,61.27
2018-03-20T13:51:06.097Z,63.23
2018-03-20T13:53:33.683Z,62.17
2018-03-20T13:56:01.351Z,61.77
2018-03-20T13:58:29.245Z,61.38
2018-03-20T14:00:56.856Z,60.93
2018-03-20T14:03:24.428Z,61.68
2018-03-20T14:05:52.120Z,62.04
2018-03-20T14:08:19.910Z,61.51
2018-03-20T14:10:47.490Z,63.66
2018-03-20T14:13:15.132Z,62.07
2018-03-20T14:15:42.708Z,61.46
2018-03-20T14:18:10.333Z,61.16
2018-03-20T14:20:38.960Z,61.94
2018-03-20T14:23:06.524Z,62.83
2018-03-20T14:25:34.114Z,62.62
2018-03-20T14:28:02.011Z,64.38
2018-03-20T14:30:31.266Z,63.16
2018-03-20T14:32:58.861Z,62.49
2018-03-20T14:35:26.485Z,64.11
2018-03-20T14:37:54.074Z,63.01
2018-03-20T14:40:21.681Z,63.53
2018-03-20T14:42:49.335Z,64.15
2018-03-20T14:45:17.201Z,64.33
2018-03-20T14:47:44.837Z,63.12
2018-03-20T14:50:12.470Z,63.97
2018-03-20T14:52:40.069Z,64.09
2018-03-20T14:55:07.632Z,65.04
2018-03-20T14:57:35.284Z,65.77
2018-03-20T15:00:02.976Z,66.84
2018-03-20T15:02:30.569Z,67.03
2018-03-20T15:04:58.403Z,67.59
2018-03-20T15:07:25.981Z,67.12
2018-03-20T15:09:53.579Z,67.19
2018-03-20T15:12:21.442Z,67.78
2018-03-20T15:14:49.024Z,67.89
2018-03-20T15:17:16.615Z,68.34
2018-03-20T15:19:44.246Z,67.15
2018-03-20T15:22:11.847Z,67.22
2018-03-20T15:24:39.483Z,68.12
2018-03-20T15:27:07.153Z,67.33
2018-03-20T15:29:34.826Z,67.97
2018-03-20T15:32:02.417Z,67.90
2018-03-20T15:34:30.067Z,68.34
2018-03-20T15:36:57.662Z,68.85
2018-03-20T15:39:25.254Z,69.21
2018-03-20T15:41:53.162Z,69.49
2018-03-20T15:44:20.757Z,68.79
2018-03-20T15:46:48.485Z,68.66
2018-03-20T15:49:16.182Z,68.90
2018-03-20T15:51:43.770Z,69.26
2018-03-20T15:54:11.355Z,69.69
2018-03-20T15:56:39.241Z,70.61
2018-03-20T15:59:06.917Z,70.86
2018-03-20T16:01:34.658Z,71.04
2018-03-20T16:04:02.297Z,71.19
2018-03-20T16:06:29.881Z,71.09
2018-03-20T16:08:57.502Z,71.65
2018-03-20T16:11:25.682Z,71.77
2018-03-20T16:13:53.285Z,71.87
2018-03-20T16:16:20.873Z,72.01
2018-03-20T16:18:48.542Z,71.73
2018-03-20T16:21:16.211Z,71.78
2018-03-20T16:23:44.135Z,71.81
2018-03-20T16:26:12.043Z,71.89
2018-03-20T16:28:40.502Z,72.25
2018-03-20T16:31:08.403Z,71.65
2018-03-20T16:33:36.253Z,71.54
2018-03-20T16:36:04.094Z,71.92
2018-03-20T16:38:31.944Z,72.11
2018-03-20T16:40:59.908Z,72.03
2018-03-20T16:43:27.777Z,72.36
2018-03-20T16:45:56.423Z,72.42
2018-03-20T16:48:24.417Z,72.65
2018-03-20T16:50:52.249Z,73.15
2018-03-20T16:53:20.033Z,73.13
2018-03-20T16:58:14.997Z,73.42
2018-03-20T17:00:42.994Z,73.60
2018-03-20T17:03:11.054Z,74.00
2018-03-20T17:05:38.882Z,74.00
2018-03-20T17:08:06.700Z,73.81
2018-03-20T17:10:34.781Z,73.92
2018-03-20T17:13:02.679Z,74.00
2018-03-20T17:15:30.530Z,73.90
2018-03-20T17:17:58.379Z,74.04
2018-03-20T17:20:26.262Z,74.15
2018-03-20T17:22:54.137Z,74.03
2018-03-20T17:25:22.086Z,74.08
2018-03-20T17:27:49.967Z,73.90
2018-03-20T17:30:17.776Z,74.08
2018-03-20T17:32:45.594Z,74.09
2018-03-20T17:35:13.525Z,74.04
2018-03-20T17:37:41.451Z,74.39
2018-03-20T17:40:09.633Z,74.47
2018-03-20T17:42:37.545Z,74.38
2018-03-20T17:45:05.458Z,74.26
2018-03-20T17:47:33.426Z,74.43
2018-03-20T17:50:01.328Z,74.53
2018-03-20T17:52:29.207Z,74.49
2018-03-20T17:54:57.166Z,74.54
2018-03-20T17:57:25.019Z,74.63
2018-03-20T17:59:52.886Z,74.48
2018-03-20T18:02:20.807Z,74.45
2018-03-20T18:04:48.691Z,74.43
2018-03-20T18:07:16.572Z,74.44
2018-03-20T18:09:44.520Z,74.40
2018-03-20T18:12:12.410Z,74.33
2018-03-20T18:14:41.031Z,74.36
2018-03-20T18:17:08.956Z,74.17
2018-03-20T18:19:36.907Z,74.17
2018-03-20T18:22:04.841Z,74.39
2018-03-20T18:24:33.677Z,74.22
2018-03-20T18:27:01.556Z,74.14
2018-03-20T18:29:29.437Z,74.15
2018-03-20T18:31:57.359Z,74.16
2018-03-20T18:34:25.340Z,74.06
2018-03-20T18:36:53.231Z,74.14
2018-03-20T18:39:21.412Z,74.20
2018-03-20T18:41:49.363Z,74.31
2018-03-20T18:44:17.217Z,74.68
2018-03-20T18:46:45.206Z,74.87
2018-03-20T18:49:13.081Z,74.65
2018-03-20T18:51:41.392Z,74.64
2018-03-20T18:54:09.273Z,74.58
2018-03-20T18:56:37.158Z,74.13
2018-03-20T18:59:05.038Z,73.93
2018-03-20T19:01:32.935Z,73.69
2018-03-20T19:04:00.761Z,73.76
2018-03-20T19:06:28.601Z,73.81
2018-03-20T19:08:56.934Z,73.61
2018-03-20T19:11:24.787Z,73.82
2018-03-20T19:13:52.594Z,74.18
2018-03-20T19:16:20.511Z,74.57
2018-03-20T19:18:48.397Z,74.29
2018-03-20T19:21:16.270Z,74.16
2018-03-20T19:23:44.167Z,74.11
2018-03-20T19:26:12.021Z,74.48
2018-03-20T19:28:40.311Z,74.22
2018-03-20T19:31:08.171Z,74.84
2018-03-20T19:33:36.045Z,74.94
2018-03-20T19:36:03.935Z,74.88
2018-03-20T19:38:31.877Z,75.19
2018-03-20T19:41:00.738Z,75.13
2018-03-20T19:43:28.641Z,75.35
2018-03-20T19:45:57.667Z,75.23
2018-03-20T19:48:25.949Z,74.86
2018-03-20T19:50:53.844Z,75.09
2018-03-20T19:53:21.971Z,75.10
2018-03-20T19:55:49.853Z,74.99
2018-03-20T19:58:17.822Z,74.75
2018-03-20T20:00:45.745Z,74.55
2018-03-20T20:03:13.652Z,74.03
2018-03-20T20:05:41.486Z,74.20
2018-03-20T20:08:09.407Z,74.45
2018-03-20T20:10:37.363Z,74.83
2018-03-20T20:13:06.177Z,74.71
2018-03-20T20:15:34.073Z,75.08
2018-03-20T20:18:01.894Z,75.25
2018-03-20T20:20:29.814Z,75.21
2018-03-20T20:22:58.012Z,74.79
2018-03-20T20:25:25.842Z,75.02
2018-03-20T20:27:53.663Z,75.11
2018-03-20T20:30:22.580Z,75.22
2018-03-20T20:32:50.485Z,75.52
2018-03-20T20:35:18.383Z,75.90
2018-03-20T20:37:46.971Z,76.03
2018-03-20T20:40:14.778Z,75.98
2018-03-20T20:42:42.657Z,76.08
2018-03-20T20:45:10.506Z,76.33
2018-03-20T20:47:38.212Z,76.60
2018-03-20T20:50:05.918Z,76.14
2018-03-20T20:52:33.765Z,76.49
2018-03-20T20:55:01.484Z,76.67
2018-03-20T20:57:29.177Z,76.82
2018-03-20T20:59:56.979Z,76.69
2018-03-20T21:02:24.638Z,76.83
2018-03-20T21:04:52.224Z,76.81
2018-03-20T21:07:19.871Z,77.14
2018-03-20T21:09:47.445Z,77.45
2018-03-20T21:12:15.031Z,77.80
2018-03-20T21:14:42.918Z,78.19
2018-03-20T21:17:10.489Z,78.25
2018-03-20T21:19:38.064Z,77.95
2018-03-20T21:22:05.724Z,77.92
2018-03-20T21:24:33.298Z,77.83
2018-03-20T21:27:00.873Z,77.67
2018-03-20T21:29:28.790Z,77.76
2018-03-20T21:31:56.408Z,77.98
2018-03-20T21:34:24.089Z,77.91
2018-03-20T21:36:51.705Z,77.80
2018-03-20T21:39:19.351Z,77.44
2018-03-20T21:41:46.933Z,77.27
2018-03-20T21:44:14.753Z,77.23
2018-03-20T21:46:42.333Z,77.06
2018-03-20T21:49:09.933Z,77.27
2018-03-20T21:51:37.618Z,77.23
2018-03-20T21:54:05.317Z,77.68
2018-03-20T21:56:33.396Z,78.09
2018-03-20T21:59:01.124Z,78.52
2018-03-20T22:01:30.920Z,78.90
2018-03-20T22:03:58.532Z,79.12
2018-03-20T22:06:26.155Z,79.14
2018-03-20T22:08:53.738Z,79.02
2018-03-20T22:11:21.328Z,78.87
2018-03-20T22:13:48.971Z,78.62
2018-03-20T22:16:16.556Z,78.33
2018-03-20T22:18:44.707Z,77.92
2018-03-20T22:21:12.678Z,78.32
2018-03-20T22:23:40.261Z,78.12
2018-03-20T22:26:07.981Z,77.99
2018-03-20T22:28:35.679Z,77.96
2018-03-20T22:31:03.280Z,78.32
2018-03-20T22:33:30.858Z,78.72
2018-03-20T22:35:58.565Z,78.92
2018-03-20T22:38:26.136Z,79.00
2018-03-20T22:40:53.752Z,78.67
2018-03-20T22:43:21.594Z,78.49
2018-03-20T22:45:49.159Z,78.84
2018-03-20T22:48:16.797Z,78.91
2018-03-20T22:50:44.466Z,79.04
2018-03-20T22:53:12.055Z,79.22
2018-03-20T22:55:39.654Z,79.29
2018-03-20T22:58:08.614Z,79.42
2018-03-20T23:00:36.225Z,79.79
2018-03-20T23:03:03.876Z,79.52
2018-03-20T23:05:31.529Z,79.85
2018-03-20T23:07:59.166Z,80.11
2018-03-20T23:10:26.750Z,80.20
2018-03-20T23:12:54.602Z,79.99
2018-03-20T23:15:22.185Z,80.21
2018-03-20T23:17:49.765Z,80.25
2018-03-20T23:20:17.619Z,80.77
2018-03-20T23:22:45.255Z,80.82
2018-03-20T23:25:12.837Z,80.62
2018-03-20T23:27:40.464Z,80.30
2018-03-20T23:30:08.090Z,79.84
2018-03-20T23:32:35.706Z,79.27
2018-03-20T23:35:03.413Z,78.75
2018-03-20T23:37:31.014Z,78.29
2018-03-20T23:39:58.648Z,78.20
2018-03-20T23:42:26.298Z,77.89
2018-03-20T23:44:53.954Z,77.77
2018-03-20T23:47:21.600Z,77.66
2018-03-20T23:49:49.436Z,77.64
2018-03-20T23:52:17.272Z,77.42
2018-03-20T23:54:44.851Z,77.41
2018-03-20T23:57:12.697Z,77.20
2018-03-20T23:59:40.411Z,77.15
